createdAt,value
2023-02-12T00:00:53.770Z,7.05
2023-02-12T00:01:56.086Z,4.50
2023-02-12T00:02:58.469Z,6.20
2023-02-12T00:04:01.110Z,5.90
2023-02-12T00:05:03.417Z,8.38
2023-02-12T00:06:06.512Z,6.68
2023-02-12T00:07:09.017Z,6.97
2023-02-12T00:08:16.309Z,4.78
2023-02-12T00:09:18.616Z,5.07
2023-02-12T00:10:20.929Z,7.47
2023-02-12T00:11:28.797Z,5.07
2023-02-12T00:12:31.116Z,5.30
2023-02-12T00:13:33.345Z,4.80
2023-02-12T00:14:37.585Z,5.55
2023-02-12T00:15:41.260Z,5.10
2023-02-12T00:16:43.528Z,6.20
2023-02-12T00:17:45.951Z,6.32
2023-02-12T00:18:51.284Z,6.00
2023-02-12T00:19:53.528Z,7.53
2023-02-12T00:20:58.868Z,4.05
2023-02-12T00:22:01.153Z,6.78
2023-02-12T00:23:03.845Z,7.30
2023-02-12T00:24:06.349Z,4.70
2023-02-12T00:25:08.735Z,5.95
2023-02-12T00:26:13.790Z,5.20
2023-02-12T00:27:22.200Z,3.95
2023-02-12T00:28:24.962Z,6.60
2023-02-12T00:29:27.583Z,4.85
2023-02-12T00:30:29.835Z,4.72
2023-02-12T00:31:32.696Z,3.30
2023-02-12T00:32:35.005Z,5.43
2023-02-12T00:33:37.510Z,5.75
2023-02-12T00:34:40.410Z,4.93
2023-02-12T00:35:42.718Z,6.15
2023-02-12T00:36:45.159Z,6.43
2023-02-12T00:37:47.541Z,4.70
2023-02-12T00:38:52.768Z,5.20
2023-02-12T00:39:55.032Z,5.70
2023-02-12T00:40:57.470Z,4.30
2023-02-12T00:41:59.905Z,4.15
2023-02-12T00:43:02.149Z,3.63
2023-02-12T00:44:04.832Z,4.28
2023-02-12T00:45:10.490Z,4.05
2023-02-12T00:46:13.338Z,5.35
2023-02-12T00:47:17.041Z,5.15
2023-02-12T00:48:19.308Z,3.53
2023-02-12T00:49:21.549Z,3.38
2023-02-12T00:50:23.913Z,3.78
2023-02-12T00:51:26.216Z,4.25
2023-02-12T00:52:28.508Z,4.60
2023-02-12T00:53:30.879Z,3.33
2023-02-12T00:54:33.190Z,3.35
2023-02-12T00:55:35.776Z,5.03
2023-02-12T00:56:38.075Z,4.55
2023-02-12T00:57:40.380Z,7.15
2023-02-12T00:58:42.621Z,5.05
2023-02-12T00:59:44.898Z,3.90
2023-02-12T01:00:47.322Z,4.38
2023-02-12T01:01:50.125Z,4.40
2023-02-12T01:02:52.901Z,4.00
2023-02-12T01:03:55.212Z,3.53
2023-02-12T01:04:58.689Z,3.53
2023-02-12T01:06:01.117Z,4.00
2023-02-12T01:07:03.636Z,6.18
2023-02-12T01:08:06.257Z,6.05
2023-02-12T01:09:08.763Z,3.70
2023-02-12T01:10:12.104Z,5.75
2023-02-12T01:11:14.674Z,5.45
2023-02-12T01:12:17.082Z,3.00
2023-02-12T01:13:19.440Z,3.83
2023-02-12T01:14:23.184Z,2.90
2023-02-12T01:15:25.547Z,3.72
2023-02-12T01:16:28.103Z,3.25
2023-02-12T01:17:31.760Z,3.10
2023-02-12T01:18:34.393Z,4.00
2023-02-12T01:19:36.688Z,4.05
2023-02-12T01:20:40.274Z,3.55
2023-02-12T01:21:42.707Z,3.38
2023-02-12T01:22:45.313Z,3.00
2023-02-12T01:23:49.230Z,3.38
2023-02-12T01:24:51.568Z,4.45
2023-02-12T01:25:54.417Z,3.80
2023-02-12T01:26:56.902Z,3.03
2023-02-12T01:27:59.221Z,4.95
2023-02-12T01:29:03.732Z,2.95
2023-02-12T01:30:09.573Z,3.28
2023-02-12T01:31:18.393Z,2.95
2023-02-12T01:32:25.877Z,3.42
2023-02-12T01:33:28.162Z,3.00
2023-02-12T01:34:30.433Z,3.20
2023-02-12T01:35:32.732Z,4.55
2023-02-12T01:36:35.376Z,3.30
2023-02-12T01:37:38.550Z,5.50
2023-02-12T01:38:40.889Z,3.53
2023-02-12T01:39:43.911Z,2.85
2023-02-12T01:40:46.195Z,2.80
2023-02-12T01:41:48.763Z,3.08
2023-02-12T01:42:51.018Z,3.83
2023-02-12T01:44:28.732Z,4.22
2023-02-12T01:45:36.934Z,2.30
2023-02-12T01:46:39.946Z,2.90
2023-02-12T01:47:45.236Z,3.83
2023-02-12T01:48:48.283Z,2.70
2023-02-12T01:49:50.742Z,2.50
2023-02-12T01:50:54.361Z,3.05
2023-02-12T01:52:04.377Z,3.20
2023-02-12T01:53:06.741Z,3.78
2023-02-12T01:54:12.090Z,2.42
2023-02-12T01:55:15.763Z,3.28
2023-02-12T01:56:18.582Z,3.17
2023-02-12T01:57:21.204Z,3.55
2023-02-12T01:58:25.448Z,5.35
2023-02-12T01:59:28.640Z,3.63
2023-02-12T02:00:30.966Z,4.28
2023-02-12T02:01:35.001Z,2.83
2023-02-12T02:02:39.224Z,3.53
2023-02-12T02:03:45.390Z,3.67
2023-02-12T02:04:55.806Z,2.85
2023-02-12T02:06:04.280Z,2.33
2023-02-12T02:07:10.887Z,2.50
2023-02-12T02:08:13.614Z,3.35
2023-02-12T02:09:17.820Z,2.60
2023-02-12T02:10:20.318Z,2.22
2023-02-12T02:11:44.129Z,2.53
2023-02-12T02:13:05.409Z,2.35
2023-02-12T02:14:26.331Z,1.92
2023-02-12T02:15:31.172Z,2.22
2023-02-12T02:16:36.438Z,2.00
2023-02-12T02:18:03.024Z,1.75
2023-02-12T02:19:23.369Z,1.70
2023-02-12T02:21:05.415Z,2.22
2023-02-12T02:22:07.663Z,1.63
2023-02-12T02:23:12.933Z,1.60
2023-02-12T02:24:45.862Z,3.03
2023-02-12T02:26:16.009Z,2.60
2023-02-12T02:27:56.449Z,2.05
2023-02-12T02:29:10.678Z,1.50
2023-02-12T02:30:45.657Z,1.70
2023-02-12T02:31:58.984Z,1.50
2023-02-12T02:33:30.467Z,1.90
2023-02-12T02:34:42.451Z,1.50
2023-02-12T02:36:03.089Z,1.60
2023-02-12T02:37:15.952Z,1.90
2023-02-12T02:38:33.446Z,1.60
2023-02-12T02:39:41.283Z,1.33
2023-02-12T02:41:04.918Z,1.40
2023-02-12T02:42:26.636Z,1.83
2023-02-12T02:43:35.401Z,1.58
2023-02-12T02:44:52.311Z,1.52
2023-02-12T02:46:01.332Z,1.70
2023-02-12T02:47:08.899Z,1.92
2023-02-12T02:48:34.154Z,1.60
2023-02-12T02:49:59.050Z,2.10
2023-02-12T02:51:13.260Z,1.98
2023-02-12T02:52:22.611Z,2.08
2023-02-12T02:53:33.447Z,1.70
2023-02-12T02:54:52.318Z,1.67
2023-02-12T02:55:58.795Z,1.60
2023-02-12T02:57:09.741Z,2.47
2023-02-12T02:58:23.360Z,1.85
2023-02-12T02:59:34.359Z,2.03
2023-02-12T03:00:58.833Z,1.60
2023-02-12T03:02:14.732Z,1.48
2023-02-12T03:03:22.439Z,1.58
2023-02-12T03:04:35.500Z,1.80
2023-02-12T03:05:45.365Z,1.88
2023-02-12T03:07:08.437Z,2.00
2023-02-12T03:08:24.082Z,1.95
2023-02-12T03:09:59.594Z,1.73
2023-02-12T03:11:12.171Z,3.47
2023-02-12T03:12:27.863Z,2.83
2023-02-12T03:13:34.742Z,2.40
2023-02-12T03:14:45.709Z,3.08
2023-02-12T03:15:56.474Z,2.70
2023-02-12T03:17:08.862Z,2.20
2023-02-12T03:18:30.337Z,2.58
2023-02-12T03:19:47.954Z,2.72
2023-02-12T03:20:55.586Z,2.42
2023-02-12T03:22:06.114Z,2.53
2023-02-12T03:23:24.450Z,1.80
2023-02-12T03:24:47.513Z,2.78
2023-02-12T03:26:01.454Z,2.88
2023-02-12T03:27:10.198Z,2.88
2023-02-12T03:28:22.791Z,2.30
2023-02-12T03:29:25.910Z,2.45
2023-02-12T03:30:52.493Z,2.30
2023-02-12T03:32:22.529Z,2.17
2023-02-12T03:33:36.293Z,2.03
2023-02-12T03:34:59.455Z,2.00
2023-02-12T03:36:07.890Z,2.35
2023-02-12T03:37:17.989Z,1.75
2023-02-12T03:38:41.894Z,2.72
2023-02-12T03:40:05.736Z,3.88
2023-02-12T03:41:26.438Z,2.00
2023-02-12T03:42:41.150Z,2.47
2023-02-12T03:43:56.007Z,2.55
2023-02-12T03:45:09.478Z,2.60
2023-02-12T03:46:24.725Z,4.68
2023-02-12T03:47:59.796Z,4.72
2023-02-12T03:49:15.800Z,3.55
2023-02-12T03:50:26.488Z,2.20
2023-02-12T03:51:44.770Z,2.25
2023-02-12T03:52:47.730Z,2.50
2023-02-12T03:53:50.178Z,2.20
2023-02-12T03:54:52.598Z,3.28
2023-02-12T03:56:04.122Z,2.53
2023-02-12T03:57:14.165Z,4.20
2023-02-12T03:58:21.530Z,2.78
2023-02-12T03:59:25.506Z,3.08
2023-02-12T04:00:27.852Z,2.63
2023-02-12T04:01:31.705Z,2.50
2023-02-12T04:02:34.503Z,4.07
2023-02-12T04:03:36.987Z,4.50
2023-02-12T04:04:39.652Z,6.30
2023-02-12T04:05:42.051Z,2.95
2023-02-12T04:06:47.366Z,3.75
2023-02-12T04:07:51.413Z,4.32
2023-02-12T04:08:56.742Z,3.67
2023-02-12T04:09:59.106Z,4.20
2023-02-12T04:11:07.883Z,3.30
2023-02-12T04:12:41.176Z,3.63
2023-02-12T04:13:59.718Z,2.83
2023-02-12T04:15:10.625Z,3.22
2023-02-12T04:16:43.421Z,4.45
2023-02-12T04:18:08.970Z,3.00
2023-02-12T04:19:16.840Z,3.17
2023-02-12T04:20:41.426Z,3.90
2023-02-12T04:22:00.342Z,3.08
2023-02-12T04:23:16.447Z,2.67
2023-02-12T04:24:35.929Z,3.45
2023-02-12T04:25:49.050Z,2.70
2023-02-12T04:27:30.150Z,2.33
2023-02-12T04:28:45.914Z,2.30
2023-02-12T04:29:56.308Z,2.40
2023-02-12T04:31:20.909Z,2.90
2023-02-12T04:32:34.693Z,2.55
2023-02-12T04:33:47.938Z,2.13
2023-02-12T04:34:53.366Z,2.40
2023-02-12T04:36:09.214Z,2.08
2023-02-12T04:37:34.890Z,2.08
2023-02-12T04:38:44.164Z,2.35
2023-02-12T04:39:47.496Z,2.55
2023-02-12T04:40:51.218Z,2.20
2023-02-12T04:41:53.755Z,1.95
2023-02-12T04:42:56.186Z,2.05
2023-02-12T04:43:58.669Z,1.80
2023-02-12T04:45:00.959Z,3.80
2023-02-12T04:46:05.921Z,2.08
2023-02-12T04:47:08.524Z,2.65
2023-02-12T04:48:12.008Z,2.50
2023-02-12T04:49:19.334Z,2.20
2023-02-12T04:50:21.994Z,1.98
2023-02-12T04:51:24.540Z,2.13
2023-02-12T04:52:26.907Z,2.17
2023-02-12T04:53:29.265Z,2.60
2023-02-12T04:54:31.658Z,2.20
2023-02-12T04:55:34.037Z,2.45
2023-02-12T04:56:36.559Z,1.83
2023-02-12T04:57:38.941Z,2.15
2023-02-12T04:58:41.884Z,2.08
2023-02-12T04:59:44.143Z,1.70
2023-02-12T05:00:46.373Z,2.22
2023-02-12T05:01:48.841Z,2.05
2023-02-12T05:02:51.248Z,1.83
2023-02-12T05:03:53.667Z,1.52
2023-02-12T05:04:55.944Z,1.95
2023-02-12T05:06:03.904Z,1.73
2023-02-12T05:07:06.284Z,1.90
2023-02-12T05:08:08.588Z,2.40
2023-02-12T05:09:14.912Z,2.08
2023-02-12T05:10:17.410Z,2.10
2023-02-12T05:11:20.016Z,2.40
2023-02-12T05:12:22.506Z,1.40
2023-02-12T05:13:24.822Z,2.00
2023-02-12T05:14:27.067Z,1.90
2023-02-12T05:15:29.440Z,1.52
2023-02-12T05:16:32.004Z,1.90
2023-02-12T05:17:37.684Z,1.20
2023-02-12T05:18:40.050Z,1.50
2023-02-12T05:19:42.316Z,2.25
2023-02-12T05:20:44.644Z,1.38
2023-02-12T05:21:49.453Z,1.60
2023-02-12T05:22:53.506Z,1.58
2023-02-12T05:23:55.761Z,1.15
2023-02-12T05:24:58.106Z,1.88
2023-02-12T05:26:02.743Z,1.48
2023-02-12T05:27:05.084Z,1.30
2023-02-12T05:28:07.442Z,1.50
2023-02-12T05:29:09.758Z,1.67
2023-02-12T05:30:12.437Z,1.27
2023-02-12T05:31:20.766Z,1.30
2023-02-12T05:32:24.124Z,1.50
2023-02-12T05:33:26.467Z,1.25
2023-02-12T05:34:29.373Z,1.02
2023-02-12T05:35:35.418Z,1.15
2023-02-12T05:36:37.929Z,1.33
2023-02-12T05:37:40.289Z,1.50
2023-02-12T05:38:43.281Z,1.30
2023-02-12T05:39:45.662Z,1.45
2023-02-12T05:40:48.150Z,0.93
2023-02-12T05:41:50.468Z,1.08
2023-02-12T05:42:52.816Z,1.20
2023-02-12T05:43:55.282Z,1.30
2023-02-12T05:44:57.589Z,1.40
2023-02-12T05:46:01.197Z,1.33
2023-02-12T05:47:03.531Z,1.40
2023-02-12T05:48:05.802Z,1.33
2023-02-12T05:49:08.953Z,1.13
2023-02-12T05:50:11.454Z,1.15
2023-02-12T05:51:25.230Z,1.40
2023-02-12T05:52:27.466Z,1.30
2023-02-12T05:53:30.203Z,1.50
2023-02-12T05:54:32.463Z,1.23
2023-02-12T05:55:34.710Z,1.50
2023-02-12T05:56:43.627Z,1.58
2023-02-12T05:57:46.049Z,1.15
2023-02-12T05:58:53.166Z,1.60
2023-02-12T05:59:55.569Z,1.70
2023-02-12T06:00:57.789Z,1.60
2023-02-12T06:02:00.099Z,1.35
2023-02-12T06:03:02.557Z,1.48
2023-02-12T06:04:07.270Z,2.10
2023-02-12T06:05:09.707Z,2.08
2023-02-12T06:06:12.636Z,1.75
2023-02-12T06:07:14.919Z,1.90
2023-02-12T06:08:17.193Z,2.20
2023-02-12T06:09:19.566Z,2.45
2023-02-12T06:10:21.961Z,2.55
2023-02-12T06:11:24.384Z,2.15
2023-02-12T06:12:26.846Z,1.98
2023-02-12T06:13:30.158Z,2.53
2023-02-12T06:14:32.580Z,1.83
2023-02-12T06:15:37.188Z,2.03
2023-02-12T06:16:39.511Z,1.75
2023-02-12T06:17:41.843Z,2.83
2023-02-12T06:18:44.167Z,2.35
2023-02-12T06:19:46.484Z,2.70
2023-02-12T06:20:49.042Z,1.73
2023-02-12T06:21:51.517Z,2.00
2023-02-12T06:22:53.771Z,2.25
2023-02-12T06:23:56.249Z,2.60
2023-02-12T06:24:58.571Z,2.90
2023-02-12T06:26:00.953Z,1.73
2023-02-12T06:27:03.408Z,2.60
2023-02-12T06:28:05.777Z,2.72
2023-02-12T06:29:08.122Z,2.50
2023-02-12T06:30:11.179Z,2.65
2023-02-12T06:31:20.507Z,2.40
2023-02-12T06:32:23.023Z,3.83
2023-02-12T06:33:25.300Z,2.20
2023-02-12T06:34:27.871Z,2.50
2023-02-12T06:35:30.126Z,2.35
2023-02-12T06:36:32.471Z,2.38
2023-02-12T06:37:37.151Z,1.63
2023-02-12T06:38:39.653Z,2.47
2023-02-12T06:39:41.950Z,2.10
2023-02-12T06:40:44.388Z,3.45
2023-02-12T06:41:46.713Z,3.75
2023-02-12T06:42:50.352Z,2.63
2023-02-12T06:43:52.744Z,3.42
2023-02-12T06:44:55.045Z,4.15
2023-02-12T06:46:01.041Z,2.03
2023-02-12T06:47:03.323Z,4.90
2023-02-12T06:48:06.062Z,2.75
2023-02-12T06:49:08.609Z,2.40
2023-02-12T06:50:11.278Z,2.47
2023-02-12T06:51:18.745Z,2.92
2023-02-12T06:52:21.674Z,3.28
2023-02-12T06:53:23.915Z,2.05
2023-02-12T06:54:26.195Z,3.15
2023-02-12T06:55:28.536Z,3.42
2023-02-12T06:56:30.801Z,3.88
2023-02-12T06:57:33.233Z,3.10
2023-02-12T06:58:35.464Z,5.25
2023-02-12T06:59:37.864Z,5.13
2023-02-12T07:00:40.230Z,6.45
2023-02-12T07:01:42.904Z,3.60
2023-02-12T07:02:45.254Z,5.30
2023-02-12T07:03:55.113Z,3.60
2023-02-12T07:04:57.360Z,2.80
2023-02-12T07:05:59.659Z,7.22
2023-02-12T07:07:01.903Z,6.50
2023-02-12T07:08:04.333Z,5.30
2023-02-12T07:09:06.718Z,4.07
2023-02-12T07:10:09.781Z,6.75
2023-02-12T07:11:12.721Z,3.20
2023-02-12T07:12:14.986Z,3.08
2023-02-12T07:13:17.232Z,4.20
2023-02-12T07:14:19.513Z,2.92
2023-02-12T07:15:21.789Z,3.17
2023-02-12T07:16:24.210Z,2.85
2023-02-12T07:17:26.585Z,3.83
2023-02-12T07:18:28.860Z,2.90
2023-02-12T07:19:31.275Z,3.80
2023-02-12T07:20:33.777Z,6.30
2023-02-12T07:21:36.025Z,5.90
2023-02-12T07:22:38.397Z,4.13
2023-02-12T07:23:41.311Z,3.20
2023-02-12T07:24:43.638Z,3.42
2023-02-12T07:25:58.259Z,3.95
2023-02-12T07:27:00.574Z,5.32
2023-02-12T07:28:02.880Z,2.90
2023-02-12T07:29:05.295Z,3.13
2023-02-12T07:30:08.433Z,4.60
2023-02-12T07:31:22.388Z,3.90
2023-02-12T07:32:24.791Z,4.47
2023-02-12T07:33:27.043Z,2.70
2023-02-12T07:34:30.168Z,3.00
2023-02-12T07:35:32.428Z,2.60
2023-02-12T07:36:34.724Z,2.47
2023-02-12T07:37:37.093Z,4.82
2023-02-12T07:38:42.527Z,4.07
2023-02-12T07:39:44.799Z,3.45
2023-02-12T07:40:47.095Z,2.47
2023-02-12T07:41:49.550Z,2.22
2023-02-12T07:42:55.878Z,1.90
2023-02-12T07:44:07.659Z,2.33
2023-02-12T07:45:10.363Z,2.35
2023-02-12T07:46:21.374Z,2.53
2023-02-12T07:47:23.670Z,2.45
2023-02-12T07:48:25.902Z,3.25
2023-02-12T07:49:28.145Z,2.70
2023-02-12T07:50:30.502Z,2.90
2023-02-12T07:51:37.099Z,2.97
2023-02-12T07:52:39.362Z,4.00
2023-02-12T07:53:42.329Z,4.35
2023-02-12T07:54:44.654Z,2.90
2023-02-12T07:55:46.922Z,4.43
2023-02-12T07:56:50.965Z,2.90
2023-02-12T07:57:53.194Z,3.15
2023-02-12T07:58:55.516Z,2.90
2023-02-12T07:59:57.816Z,5.07
2023-02-12T08:01:00.042Z,2.92
2023-02-12T08:02:02.372Z,2.63
2023-02-12T08:03:04.612Z,2.75
2023-02-12T08:04:13.411Z,2.35
2023-02-12T08:05:15.832Z,2.75
2023-02-12T08:06:21.209Z,2.92
2023-02-12T08:07:23.806Z,3.85
2023-02-12T08:08:26.046Z,2.20
2023-02-12T08:09:30.873Z,2.90
2023-02-12T08:10:33.258Z,3.45
2023-02-12T08:11:37.491Z,2.60
2023-02-12T08:12:39.860Z,3.08
2023-02-12T08:13:42.262Z,2.53
2023-02-12T08:14:44.955Z,2.15
2023-02-12T08:15:47.290Z,2.50
2023-02-12T08:16:50.856Z,2.28
2023-02-12T08:17:54.529Z,2.40
2023-02-12T08:19:07.197Z,2.72
2023-02-12T08:20:17.103Z,3.60
2023-02-12T08:21:22.217Z,2.47
2023-02-12T08:22:24.451Z,2.65
2023-02-12T08:23:26.664Z,2.22
2023-02-12T08:24:30.143Z,2.72
2023-02-12T08:25:32.473Z,2.00
2023-02-12T08:26:37.761Z,2.30
2023-02-12T08:27:42.152Z,2.08
2023-02-12T08:28:53.816Z,1.75
2023-02-12T08:29:56.094Z,1.50
2023-02-12T08:31:03.275Z,1.63
2023-02-12T08:32:07.205Z,1.83
2023-02-12T08:33:09.560Z,2.45
2023-02-12T08:34:18.883Z,1.65
2023-02-12T08:35:21.164Z,2.40
2023-02-12T08:36:29.600Z,2.00
2023-02-12T08:37:31.819Z,2.25
2023-02-12T08:38:34.390Z,1.95
2023-02-12T08:39:36.608Z,2.30
2023-02-12T08:40:38.975Z,2.70
2023-02-12T08:41:44.196Z,2.55
2023-02-12T08:42:46.468Z,2.88
2023-02-12T08:43:49.832Z,3.50
2023-02-12T08:44:52.088Z,3.15
2023-02-12T08:45:55.394Z,2.90
2023-02-12T08:46:58.016Z,2.90
2023-02-12T08:48:00.282Z,3.50
2023-02-12T08:49:06.044Z,4.88
2023-02-12T08:50:08.794Z,3.92
2023-02-12T08:51:16.616Z,4.07
2023-02-12T08:52:19.733Z,3.95
2023-02-12T08:53:22.012Z,3.10
2023-02-12T08:54:26.977Z,5.20
2023-02-12T08:55:29.223Z,4.25
2023-02-12T08:56:33.489Z,4.95
2023-02-12T08:57:35.937Z,4.15
2023-02-12T08:58:38.570Z,6.13
2023-02-12T08:59:40.776Z,4.28
2023-02-12T09:00:43.230Z,4.05
2023-02-12T09:01:45.685Z,6.70
2023-02-12T09:02:49.304Z,5.30
2023-02-12T09:03:52.671Z,4.90
2023-02-12T09:04:55.010Z,4.28
2023-02-12T09:05:57.593Z,3.63
2023-02-12T09:07:00.099Z,5.10
2023-02-12T09:08:02.360Z,5.43
2023-02-12T09:09:04.796Z,5.63
2023-02-12T09:10:07.764Z,3.95
2023-02-12T09:11:24.455Z,4.85
2023-02-12T09:12:26.703Z,3.88
2023-02-12T09:13:28.905Z,3.10
2023-02-12T09:14:31.161Z,4.07
2023-02-12T09:15:44.981Z,4.75
2023-02-12T09:16:47.473Z,3.88
2023-02-12T09:17:49.815Z,6.05
2023-02-12T09:18:52.162Z,4.00
2023-02-12T09:19:54.852Z,6.20
2023-02-12T09:21:08.476Z,3.85
2023-02-12T09:22:10.777Z,2.83
2023-02-12T09:23:14.622Z,3.25
2023-02-12T09:24:16.838Z,2.83
2023-02-12T09:25:19.076Z,3.25
2023-02-12T09:26:25.862Z,3.38
2023-02-12T09:27:31.028Z,2.83
2023-02-12T09:28:34.555Z,2.72
2023-02-12T09:29:36.908Z,2.97
2023-02-12T09:30:40.252Z,2.25
2023-02-12T09:31:42.658Z,3.45
2023-02-12T09:32:45.074Z,3.53
2023-02-12T09:33:50.527Z,2.55
2023-02-12T09:34:54.003Z,3.97
2023-02-12T09:35:56.511Z,2.42
2023-02-12T09:36:58.984Z,3.53
2023-02-12T09:38:01.284Z,2.78
2023-02-12T09:39:05.625Z,2.50
2023-02-12T09:40:08.560Z,2.17
2023-02-12T09:41:35.332Z,2.97
2023-02-12T09:43:07.117Z,2.70
2023-02-12T09:44:12.022Z,3.25
2023-02-12T09:45:21.742Z,4.45
2023-02-12T09:46:45.384Z,2.60
2023-02-12T09:48:08.307Z,3.20
2023-02-12T09:49:19.180Z,3.30
2023-02-12T09:50:35.013Z,3.20
2023-02-12T09:51:40.181Z,3.97
2023-02-12T09:52:43.158Z,3.95
2023-02-12T09:53:48.006Z,3.45
2023-02-12T09:54:51.231Z,4.85
2023-02-12T09:55:54.794Z,3.55
2023-02-12T09:57:00.204Z,4.07
2023-02-12T09:58:20.113Z,4.70
2023-02-12T09:59:35.382Z,3.25
2023-02-12T10:00:37.614Z,2.85
2023-02-12T10:01:39.925Z,2.60
2023-02-12T10:02:42.372Z,2.80
2023-02-12T10:03:46.414Z,3.10
2023-02-12T10:05:00.778Z,4.88
2023-02-12T10:06:07.834Z,2.70
2023-02-12T10:07:23.917Z,3.95
2023-02-12T10:08:58.881Z,4.25
2023-02-12T10:10:21.930Z,2.63
2023-02-12T10:11:33.461Z,2.60
2023-02-12T10:13:04.106Z,2.90
2023-02-12T10:14:35.175Z,2.53
2023-02-12T10:16:04.700Z,4.90
2023-02-12T10:17:23.167Z,1.95
2023-02-12T10:19:02.028Z,2.67
2023-02-12T10:20:12.942Z,3.70
2023-02-12T10:21:33.169Z,2.42
2023-02-12T10:22:55.020Z,3.83
2023-02-12T10:24:39.393Z,2.92
2023-02-12T10:25:54.491Z,3.35
2023-02-12T10:27:02.391Z,3.47
2023-02-12T10:28:38.814Z,4.28
2023-02-12T10:29:43.761Z,5.60
2023-02-12T10:31:00.067Z,4.18
2023-02-12T10:32:07.799Z,4.50
2023-02-12T10:33:31.847Z,6.20
2023-02-12T10:34:36.781Z,7.72
2023-02-12T10:35:45.647Z,6.45
2023-02-12T10:36:50.203Z,5.75
2023-02-12T10:38:06.370Z,5.82
2023-02-12T10:39:12.915Z,3.83
2023-02-12T10:40:26.379Z,5.55
2023-02-12T10:41:31.478Z,4.20
2023-02-12T10:42:42.849Z,6.25
2023-02-12T10:43:45.384Z,4.07
2023-02-12T10:44:47.802Z,3.97
2023-02-12T10:45:50.986Z,6.60
2023-02-12T10:46:53.647Z,4.70
2023-02-12T10:48:14.624Z,3.90
2023-02-12T10:49:19.337Z,5.85
2023-02-12T10:50:58.734Z,4.85
2023-02-12T10:52:35.384Z,7.53
2023-02-12T10:53:45.463Z,6.60
2023-02-12T10:54:51.623Z,5.28
2023-02-12T10:56:21.195Z,5.00
2023-02-12T10:57:38.352Z,5.32
2023-02-12T10:58:50.803Z,5.00
2023-02-12T10:59:57.260Z,6.25
2023-02-12T11:01:01.171Z,5.50
2023-02-12T11:02:05.432Z,4.72
2023-02-12T11:03:13.231Z,5.50
2023-02-12T11:04:32.895Z,6.10
2023-02-12T11:05:37.742Z,5.20
2023-02-12T11:06:39.998Z,4.20
2023-02-12T11:07:51.681Z,8.07
2023-02-12T11:08:54.486Z,5.70
2023-02-12T11:09:57.664Z,4.47
2023-02-12T11:11:20.334Z,4.70
2023-02-12T11:12:48.125Z,5.10
2023-02-12T11:14:17.598Z,4.72
2023-02-12T11:15:25.323Z,4.03
2023-02-12T11:16:33.806Z,6.57
2023-02-12T11:17:42.441Z,6.72
2023-02-12T11:18:44.856Z,4.78
2023-02-12T11:20:16.921Z,4.18
2023-02-12T11:21:23.639Z,3.88
2023-02-12T11:22:26.007Z,4.35
2023-02-12T11:23:37.059Z,3.38
2023-02-12T11:24:39.426Z,3.35
2023-02-12T11:25:56.587Z,4.05
2023-02-12T11:27:16.891Z,5.05
2023-02-12T11:28:19.852Z,3.80
2023-02-12T11:29:24.602Z,3.42
2023-02-12T11:30:27.383Z,4.38
2023-02-12T11:31:35.360Z,4.55
2023-02-12T11:32:38.159Z,5.05
2023-02-12T11:33:40.497Z,3.95
2023-02-12T11:34:42.777Z,6.18
2023-02-12T11:36:06.703Z,5.57
2023-02-12T11:37:18.821Z,6.82
2023-02-12T11:38:31.826Z,4.93
2023-02-12T11:39:39.666Z,4.68
2023-02-12T11:40:47.521Z,4.70
2023-02-12T11:41:54.277Z,5.68
2023-02-12T11:43:03.665Z,4.45
2023-02-12T11:44:19.949Z,3.92
2023-02-12T11:45:35.410Z,4.40
2023-02-12T11:46:38.300Z,6.10
2023-02-12T11:47:41.169Z,6.63
2023-02-12T11:48:47.558Z,6.20
2023-02-12T11:50:25.313Z,5.72
2023-02-12T11:51:31.467Z,7.65
2023-02-12T11:52:40.059Z,5.97
2023-02-12T11:53:47.360Z,5.50
2023-02-12T11:54:53.431Z,5.57
2023-02-12T11:56:00.069Z,8.02
2023-02-12T11:57:02.738Z,6.22
2023-02-12T11:58:26.028Z,7.88
2023-02-12T11:59:43.059Z,8.23
2023-02-12T12:00:56.978Z,6.63
2023-02-12T12:02:06.270Z,9.80
2023-02-12T12:03:14.794Z,7.00
2023-02-12T12:04:20.591Z,7.38
2023-02-12T12:05:29.270Z,7.55
2023-02-12T12:07:05.260Z,6.95
2023-02-12T12:08:16.816Z,7.40
2023-02-12T12:09:42.908Z,5.78
2023-02-12T12:10:50.936Z,9.57
2023-02-12T12:12:05.313Z,9.00
2023-02-12T12:13:16.699Z,5.90
2023-02-12T12:14:27.757Z,5.90
2023-02-12T12:15:57.551Z,9.70
2023-02-12T12:17:39.634Z,17.27
2023-02-12T12:19:05.979Z,16.33
2023-02-12T12:20:20.953Z,20.83
2023-02-12T12:21:38.042Z,16.10
2023-02-12T12:22:54.607Z,32.80
2023-02-12T12:24:06.865Z,28.17
2023-02-12T12:25:20.599Z,17.02
2023-02-12T12:26:26.874Z,12.90
2023-02-12T12:28:00.474Z,9.50
2023-02-12T12:29:26.574Z,8.57
2023-02-12T12:30:43.527Z,8.88
2023-02-12T12:31:57.848Z,8.13
2023-02-12T12:33:03.730Z,8.85
2023-02-12T12:34:21.913Z,7.40
2023-02-12T12:35:37.525Z,7.38
2023-02-12T12:36:42.411Z,8.68
2023-02-12T12:37:58.013Z,7.47
2023-02-12T12:39:03.035Z,6.32
2023-02-12T12:40:14.510Z,6.03
2023-02-12T12:41:48.068Z,6.88
2023-02-12T12:43:11.294Z,5.85
2023-02-12T12:44:32.204Z,8.05
2023-02-12T12:46:06.256Z,5.28
2023-02-12T12:47:29.984Z,8.75
2023-02-12T12:48:56.047Z,6.35
2023-02-12T12:50:24.957Z,8.30
2023-02-12T12:52:15.060Z,7.60
2023-02-12T12:53:47.983Z,11.75
2023-02-12T12:55:14.169Z,12.00
2023-02-12T12:56:29.374Z,10.45
2023-02-12T12:58:01.557Z,15.80
2023-02-12T12:59:35.728Z,12.00
2023-02-12T13:00:44.081Z,12.88
2023-02-12T13:01:53.575Z,10.55
2023-02-12T13:03:10.964Z,15.68
2023-02-12T13:04:29.072Z,12.60
2023-02-12T13:05:58.039Z,11.65
2023-02-12T13:07:11.354Z,10.23
2023-02-12T13:08:47.508Z,8.18
2023-02-12T13:10:14.370Z,9.88
2023-02-12T13:11:39.174Z,6.43
2023-02-12T13:12:56.473Z,8.18
2023-02-12T13:14:24.266Z,7.35
2023-02-12T13:15:32.766Z,7.03
2023-02-12T13:16:45.312Z,7.05
2023-02-12T13:18:23.299Z,5.00
2023-02-12T13:19:35.982Z,9.90
2023-02-12T13:20:56.417Z,11.20
2023-02-12T13:22:21.736Z,12.07
2023-02-12T13:23:38.582Z,10.40
2023-02-12T13:25:01.448Z,12.05
2023-02-12T13:26:30.603Z,10.15
2023-02-12T13:27:40.429Z,16.58
2023-02-12T13:28:51.788Z,13.07
2023-02-12T13:30:18.959Z,15.05
2023-02-12T13:31:33.185Z,13.05
2023-02-12T13:32:46.326Z,13.13
2023-02-12T13:33:58.659Z,12.68
2023-02-12T13:35:02.920Z,12.98
2023-02-12T13:36:08.159Z,12.00
2023-02-12T13:37:20.539Z,8.15
2023-02-12T13:38:34.493Z,7.60
2023-02-12T13:39:41.674Z,10.18
2023-02-12T13:40:44.431Z,10.52
2023-02-12T13:42:04.950Z,13.23
2023-02-12T13:43:17.895Z,13.15
2023-02-12T13:44:31.677Z,11.10
2023-02-12T13:45:39.824Z,9.75
2023-02-12T13:46:55.695Z,11.05
2023-02-12T13:48:34.894Z,8.50
2023-02-12T13:50:16.769Z,9.18
2023-02-12T13:51:44.347Z,9.02
2023-02-12T13:52:56.855Z,10.48
2023-02-12T13:54:17.214Z,7.38
2023-02-12T13:55:41.551Z,6.70
2023-02-12T13:56:46.963Z,6.60
2023-02-12T13:58:26.293Z,5.65
2023-02-12T13:59:37.019Z,5.18
2023-02-12T14:00:47.906Z,5.43
2023-02-12T14:01:51.471Z,4.20
2023-02-12T14:02:53.912Z,4.45
2023-02-12T14:03:56.226Z,5.65
2023-02-12T14:05:18.802Z,5.43
2023-02-12T14:06:22.023Z,4.30
2023-02-12T14:07:26.873Z,6.15
2023-02-12T14:08:36.973Z,4.95
2023-02-12T14:10:01.320Z,4.25
2023-02-12T14:11:19.353Z,3.25
2023-02-12T14:12:24.653Z,3.33
2023-02-12T14:13:28.874Z,5.00
2023-02-12T14:14:41.258Z,3.97
2023-02-12T14:15:51.647Z,4.20
2023-02-12T14:16:54.167Z,3.85
2023-02-12T14:18:04.356Z,3.80
2023-02-12T14:19:38.430Z,3.78
2023-02-12T14:20:42.137Z,4.20
2023-02-12T14:21:44.505Z,4.38
2023-02-12T14:22:49.753Z,3.10
2023-02-12T14:23:53.027Z,4.90
2023-02-12T14:25:00.637Z,5.15
2023-02-12T14:26:06.662Z,4.57
2023-02-12T14:27:36.269Z,3.65
2023-02-12T14:28:53.051Z,3.90
2023-02-12T14:30:21.507Z,3.10
2023-02-12T14:31:26.781Z,3.65
2023-02-12T14:32:50.050Z,2.92
2023-02-12T14:34:16.705Z,4.15
2023-02-12T14:35:30.771Z,3.05
2023-02-12T14:36:32.965Z,3.20
2023-02-12T14:37:38.095Z,2.88
2023-02-12T14:38:47.470Z,2.90
2023-02-12T14:39:50.341Z,2.63
2023-02-12T14:40:54.125Z,2.85
2023-02-12T14:42:16.285Z,2.35
2023-02-12T14:43:57.235Z,4.15
2023-02-12T14:44:59.537Z,3.13
2023-02-12T14:46:23.370Z,3.45
2023-02-12T14:47:31.299Z,3.50
2023-02-12T14:48:51.870Z,2.72
2023-02-12T14:49:55.985Z,3.03
2023-02-12T14:51:01.721Z,3.17
2023-02-12T14:52:17.705Z,3.17
2023-02-12T14:53:34.751Z,2.30
2023-02-12T14:54:58.746Z,2.60
2023-02-12T14:56:02.712Z,2.63
2023-02-12T14:57:27.376Z,2.70
2023-02-12T14:58:32.806Z,2.20
2023-02-12T14:59:40.723Z,2.20
2023-02-12T15:00:47.449Z,2.80
2023-02-12T15:01:51.578Z,1.77
2023-02-12T15:03:15.325Z,2.42
2023-02-12T15:04:31.500Z,2.35
2023-02-12T15:05:39.588Z,2.80
2023-02-12T15:07:01.132Z,2.30
2023-02-12T15:08:12.090Z,1.80
2023-02-12T15:09:25.115Z,2.35
2023-02-12T15:10:35.634Z,2.05
2023-02-12T15:11:59.083Z,2.50
2023-02-12T15:13:30.828Z,1.80
2023-02-12T15:14:36.986Z,2.25
2023-02-12T15:15:51.388Z,1.77
2023-02-12T15:17:09.889Z,2.65
2023-02-12T15:18:28.284Z,1.90
2023-02-12T15:19:53.048Z,1.60